sensor_id;sensor_type;location;lat;lon;timestamp;P1;durP1;ratioP1;P2;durP2;ratioP2
30010;SDS011;16851;53.564;8.112;2023-12-07T00:00:42;65.10;;;46.23;;
30010;SDS011;16851;53.564;8.112;2023-12-07T00:05:47;77.77;;;49.03;;
30010;SDS011;16851;53.564;8.112;2023-12-07T00:10:51;77.93;;;47.20;;
30010;SDS011;16851;53.564;8.112;2023-12-07T00:15:53;71.50;;;47.67;;
30010;SDS011;16851;53.564;8.112;2023-12-07T00:20:55;74.87;;;47.73;;
30010;SDS011;16851;53.564;8.112;2023-12-07T00:25:57;71.93;;;47.60;;
30010;SDS011;16851;53.564;8.112;2023-12-07T00:30:59;70.17;;;45.47;;
30010;SDS011;16851;53.564;8.112;2023-12-07T00:36:01;77.27;;;46.73;;
30010;SDS011;16851;53.564;8.112;2023-12-07T00:41:08;71.50;;;47.90;;
30010;SDS011;16851;53.564;8.112;2023-12-07T00:46:10;87.27;;;50.57;;
30010;SDS011;16851;53.564;8.112;2023-12-07T00:51:12;72.23;;;45.93;;
30010;SDS011;16851;53.564;8.112;2023-12-07T00:56:14;84.23;;;48.80;;
30010;SDS011;16851;53.564;8.112;2023-12-07T01:01:16;56.87;;;40.63;;
30010;SDS011;16851;53.564;8.112;2023-12-07T01:06:19;62.87;;;42.23;;
30010;SDS011;16851;53.564;8.112;2023-12-07T01:11:21;57.23;;;41.13;;
30010;SDS011;16851;53.564;8.112;2023-12-07T01:16:23;63.67;;;43.37;;
30010;SDS011;16851;53.564;8.112;2023-12-07T01:21:32;75.43;;;47.63;;
30010;SDS011;16851;53.564;8.112;2023-12-07T01:26:34;79.73;;;49.73;;
30010;SDS011;16851;53.564;8.112;2023-12-07T01:31:36;75.43;;;48.20;;
30010;SDS011;16851;53.564;8.112;2023-12-07T01:36:38;81.80;;;47.33;;
30010;SDS011;16851;53.564;8.112;2023-12-07T01:41:40;80.40;;;45.93;;
30010;SDS011;16851;53.564;8.112;2023-12-07T01:46:44;72.97;;;45.13;;
30010;SDS011;16851;53.564;8.112;2023-12-07T01:51:49;74.07;;;44.17;;
30010;SDS011;16851;53.564;8.112;2023-12-07T01:56:51;54.93;;;40.20;;
30010;SDS011;16851;53.564;8.112;2023-12-07T02:01:53;47.80;;;36.03;;
30010;SDS011;16851;53.564;8.112;2023-12-07T02:06:58;56.00;;;40.13;;
30010;SDS011;16851;53.564;8.112;2023-12-07T02:12:01;90.97;;;47.07;;
30010;SDS011;16851;53.564;8.112;2023-12-07T02:22:56;66.10;;;41.80;;
30010;SDS011;16851;53.564;8.112;2023-12-07T02:27:57;68.37;;;40.20;;
30010;SDS011;16851;53.564;8.112;2023-12-07T02:33:01;55.70;;;38.47;;
30010;SDS011;16851;53.564;8.112;2023-12-07T02:38:03;53.40;;;37.43;;
30010;SDS011;16851;53.564;8.112;2023-12-07T02:43:07;48.53;;;33.23;;
30010;SDS011;16851;53.564;8.112;2023-12-07T02:48:09;47.17;;;33.27;;
30010;SDS011;16851;53.564;8.112;2023-12-07T02:53:13;55.93;;;36.67;;
30010;SDS011;16851;53.564;8.112;2023-12-07T02:58:19;54.20;;;35.33;;
30010;SDS011;16851;53.564;8.112;2023-12-07T03:03:26;50.40;;;33.03;;
30010;SDS011;16851;53.564;8.112;2023-12-07T03:08:28;62.27;;;36.17;;
30010;SDS011;16851;53.564;8.112;2023-12-07T03:13:32;60.93;;;36.77;;
30010;SDS011;16851;53.564;8.112;2023-12-07T03:18:39;62.23;;;36.20;;
30010;SDS011;16851;53.564;8.112;2023-12-07T03:23:41;52.83;;;35.93;;
30010;SDS011;16851;53.564;8.112;2023-12-07T03:28:43;82.50;;;39.57;;
30010;SDS011;16851;53.564;8.112;2023-12-07T03:33:45;59.80;;;36.43;;
30010;SDS011;16851;53.564;8.112;2023-12-07T03:38:47;73.80;;;38.33;;
30010;SDS011;16851;53.564;8.112;2023-12-07T03:43:51;54.50;;;35.70;;
30010;SDS011;16851;53.564;8.112;2023-12-07T03:48:53;57.00;;;34.47;;
30010;SDS011;16851;53.564;8.112;2023-12-07T03:53:55;52.47;;;33.00;;
30010;SDS011;16851;53.564;8.112;2023-12-07T03:58:57;57.67;;;34.47;;
30010;SDS011;16851;53.564;8.112;2023-12-07T04:03:59;51.07;;;31.60;;
30010;SDS011;16851;53.564;8.112;2023-12-07T04:09:04;48.57;;;31.37;;
30010;SDS011;16851;53.564;8.112;2023-12-07T04:14:06;55.03;;;32.33;;
30010;SDS011;16851;53.564;8.112;2023-12-07T04:19:08;49.43;;;32.13;;
30010;SDS011;16851;53.564;8.112;2023-12-07T04:24:10;51.10;;;32.43;;
30010;SDS011;16851;53.564;8.112;2023-12-07T04:29:12;58.53;;;34.93;;
30010;SDS011;16851;53.564;8.112;2023-12-07T04:34:16;50.70;;;33.10;;
30010;SDS011;16851;53.564;8.112;2023-12-07T04:39:20;46.37;;;31.17;;
30010;SDS011;16851;53.564;8.112;2023-12-07T04:44:23;43.47;;;29.50;;
30010;SDS011;16851;53.564;8.112;2023-12-07T04:49:27;53.63;;;34.30;;
30010;SDS011;16851;53.564;8.112;2023-12-07T04:54:29;44.50;;;29.83;;
30010;SDS011;16851;53.564;8.112;2023-12-07T04:59:31;52.63;;;32.90;;
30010;SDS011;16851;53.564;8.112;2023-12-07T05:04:33;50.20;;;30.87;;
30010;SDS011;16851;53.564;8.112;2023-12-07T05:09:37;58.83;;;33.67;;
30010;SDS011;16851;53.564;8.112;2023-12-07T05:14:44;50.57;;;31.23;;
30010;SDS011;16851;53.564;8.112;2023-12-07T05:19:48;63.43;;;35.83;;
30010;SDS011;16851;53.564;8.112;2023-12-07T05:24:50;61.77;;;34.37;;
30010;SDS011;16851;53.564;8.112;2023-12-07T05:29:56;54.87;;;32.60;;
30010;SDS011;16851;53.564;8.112;2023-12-07T05:34:58;50.20;;;31.37;;
30010;SDS011;16851;53.564;8.112;2023-12-07T05:40:00;56.13;;;33.13;;
30010;SDS011;16851;53.564;8.112;2023-12-07T05:45:04;45.07;;;30.37;;
30010;SDS011;16851;53.564;8.112;2023-12-07T05:50:08;54.30;;;32.47;;
30010;SDS011;16851;53.564;8.112;2023-12-07T05:55:15;55.40;;;32.73;;
30010;SDS011;16851;53.564;8.112;2023-12-07T06:00:17;51.53;;;30.77;;
30010;SDS011;16851;53.564;8.112;2023-12-07T06:05:21;54.57;;;31.37;;
30010;SDS011;16851;53.564;8.112;2023-12-07T06:10:23;42.57;;;27.20;;
30010;SDS011;16851;53.564;8.112;2023-12-07T06:15:27;56.63;;;32.50;;
30010;SDS011;16851;53.564;8.112;2023-12-07T06:20:29;57.50;;;32.67;;
30010;SDS011;16851;53.564;8.112;2023-12-07T06:25:31;47.27;;;28.30;;
30010;SDS011;16851;53.564;8.112;2023-12-07T06:30:33;53.10;;;31.80;;
30010;SDS011;16851;53.564;8.112;2023-12-07T06:35:36;56.30;;;32.03;;
30010;SDS011;16851;53.564;8.112;2023-12-07T06:40:38;49.40;;;31.37;;
30010;SDS011;16851;53.564;8.112;2023-12-07T06:45:40;48.90;;;30.43;;
30010;SDS011;16851;53.564;8.112;2023-12-07T06:50:41;49.93;;;30.37;;
30010;SDS011;16851;53.564;8.112;2023-12-07T06:55:43;54.70;;;35.23;;
30010;SDS011;16851;53.564;8.112;2023-12-07T07:00:51;53.83;;;32.63;;
30010;SDS011;16851;53.564;8.112;2023-12-07T07:05:55;48.90;;;29.17;;
30010;SDS011;16851;53.564;8.112;2023-12-07T07:10:57;65.73;;;35.27;;
30010;SDS011;16851;53.564;8.112;2023-12-07T07:16:01;58.23;;;32.67;;
30010;SDS011;16851;53.564;8.112;2023-12-07T07:21:09;55.23;;;30.53;;
30010;SDS011;16851;53.564;8.112;2023-12-07T07:26:11;48.93;;;29.87;;
30010;SDS011;16851;53.564;8.112;2023-12-07T07:31:18;64.10;;;32.33;;
30010;SDS011;16851;53.564;8.112;2023-12-07T07:36:20;50.97;;;28.77;;
30010;SDS011;16851;53.564;8.112;2023-12-07T07:41:25;49.40;;;29.03;;
30010;SDS011;16851;53.564;8.112;2023-12-07T07:46:27;53.63;;;31.53;;
30010;SDS011;16851;53.564;8.112;2023-12-07T07:51:29;43.17;;;28.30;;
30010;SDS011;16851;53.564;8.112;2023-12-07T07:56:38;43.93;;;28.87;;
30010;SDS011;16851;53.564;8.112;2023-12-07T08:01:40;45.93;;;28.90;;
30010;SDS011;16851;53.564;8.112;2023-12-07T08:06:42;41.77;;;27.60;;
30010;SDS011;16851;53.564;8.112;2023-12-07T08:11:44;46.53;;;27.33;;
30010;SDS011;16851;53.564;8.112;2023-12-07T08:16:46;43.07;;;27.47;;
30010;SDS011;16851;53.564;8.112;2023-12-07T08:21:51;44.80;;;28.00;;
30010;SDS011;16851;53.564;8.112;2023-12-07T08:27:00;42.80;;;27.00;;
30010;SDS011;16851;53.564;8.112;2023-12-07T08:32:04;45.27;;;28.57;;
30010;SDS011;16851;53.564;8.112;2023-12-07T08:37:09;41.50;;;27.17;;
30010;SDS011;16851;53.564;8.112;2023-12-07T08:42:11;43.93;;;28.23;;
30010;SDS011;16851;53.564;8.112;2023-12-07T08:47:15;36.87;;;24.20;;
30010;SDS011;16851;53.564;8.112;2023-12-07T08:52:17;40.27;;;25.17;;
30010;SDS011;16851;53.564;8.112;2023-12-07T08:57:39;37.60;;;23.60;;
30010;SDS011;16851;53.564;8.112;2023-12-07T09:02:43;42.07;;;26.07;;
30010;SDS011;16851;53.564;8.112;2023-12-07T09:07:49;36.80;;;25.00;;
30010;SDS011;16851;53.564;8.112;2023-12-07T09:12:51;44.03;;;25.37;;
30010;SDS011;16851;53.564;8.112;2023-12-07T09:17:58;39.67;;;25.27;;
30010;SDS011;16851;53.564;8.112;2023-12-07T09:23:02;32.13;;;22.00;;
30010;SDS011;16851;53.564;8.112;2023-12-07T09:28:05;33.37;;;20.60;;
30010;SDS011;16851;53.564;8.112;2023-12-07T09:33:09;33.53;;;23.80;;
30010;SDS011;16851;53.564;8.112;2023-12-07T09:38:11;35.83;;;22.80;;
30010;SDS011;16851;53.564;8.112;2023-12-07T09:43:13;35.33;;;23.20;;
30010;SDS011;16851;53.564;8.112;2023-12-07T09:48:16;30.93;;;21.60;;
30010;SDS011;16851;53.564;8.112;2023-12-07T09:53:21;32.13;;;21.60;;
30010;SDS011;16851;53.564;8.112;2023-12-07T09:58:23;32.77;;;21.20;;
30010;SDS011;16851;53.564;8.112;2023-12-07T10:03:38;31.87;;;23.33;;
30010;SDS011;16851;53.564;8.112;2023-12-07T10:08:40;29.90;;;20.93;;
30010;SDS011;16851;53.564;8.112;2023-12-07T10:13:42;29.23;;;21.53;;
30010;SDS011;16851;53.564;8.112;2023-12-07T10:18:44;28.83;;;20.77;;
30010;SDS011;16851;53.564;8.112;2023-12-07T10:23:49;29.03;;;20.33;;
30010;SDS011;16851;53.564;8.112;2023-12-07T10:28:55;28.60;;;20.57;;
30010;SDS011;16851;53.564;8.112;2023-12-07T10:33:56;33.47;;;23.00;;
30010;SDS011;16851;53.564;8.112;2023-12-07T10:39:06;28.83;;;20.93;;
30010;SDS011;16851;53.564;8.112;2023-12-07T10:44:21;25.13;;;20.93;;
30010;SDS011;16851;53.564;8.112;2023-12-07T10:49:26;27.60;;;20.70;;
30010;SDS011;16851;53.564;8.112;2023-12-07T10:54:39;32.00;;;22.37;;
30010;SDS011;16851;53.564;8.112;2023-12-07T10:59:48;73.87;;;48.50;;
30010;SDS011;16851;53.564;8.112;2023-12-07T11:04:56;103.80;;;66.30;;
30010;SDS011;16851;53.564;8.112;2023-12-07T11:10:07;250.67;;;54.83;;
30010;SDS011;16851;53.564;8.112;2023-12-07T11:15:14;32.90;;;22.60;;
30010;SDS011;16851;53.564;8.112;2023-12-07T11:20:20;26.77;;;18.83;;
30010;SDS011;16851;53.564;8.112;2023-12-07T11:25:33;25.30;;;18.77;;
30010;SDS011;16851;53.564;8.112;2023-12-07T11:30:37;26.93;;;18.60;;
30010;SDS011;16851;53.564;8.112;2023-12-07T11:41:11;30.53;;;20.17;;
30010;SDS011;16851;53.564;8.112;2023-12-07T11:46:13;23.73;;;18.23;;
30010;SDS011;16851;53.564;8.112;2023-12-07T11:51:16;23.80;;;17.03;;
30010;SDS011;16851;53.564;8.112;2023-12-07T11:56:20;24.30;;;17.13;;
30010;SDS011;16851;53.564;8.112;2023-12-07T12:01:25;23.07;;;17.63;;
30010;SDS011;16851;53.564;8.112;2023-12-07T12:06:29;21.43;;;16.23;;
30010;SDS011;16851;53.564;8.112;2023-12-07T12:11:34;79.97;;;32.87;;
30010;SDS011;16851;53.564;8.112;2023-12-07T12:16:38;80.67;;;45.20;;
30010;SDS011;16851;53.564;8.112;2023-12-07T12:21:43;33.60;;;20.37;;
30010;SDS011;16851;53.564;8.112;2023-12-07T12:26:47;29.30;;;20.87;;
30010;SDS011;16851;53.564;8.112;2023-12-07T12:31:49;31.87;;;21.30;;
30010;SDS011;16851;53.564;8.112;2023-12-07T12:36:55;39.07;;;24.53;;
30010;SDS011;16851;53.564;8.112;2023-12-07T12:41:58;48.73;;;25.07;;
30010;SDS011;16851;53.564;8.112;2023-12-07T12:47:04;32.33;;;20.73;;
30010;SDS011;16851;53.564;8.112;2023-12-07T12:52:10;41.87;;;24.57;;
30010;SDS011;16851;53.564;8.112;2023-12-07T12:57:14;32.23;;;20.93;;
30010;SDS011;16851;53.564;8.112;2023-12-07T13:02:16;27.57;;;19.50;;
30010;SDS011;16851;53.564;8.112;2023-12-07T13:07:20;29.13;;;17.90;;
30010;SDS011;16851;53.564;8.112;2023-12-07T13:12:22;26.37;;;18.83;;
30010;SDS011;16851;53.564;8.112;2023-12-07T13:17:29;29.40;;;18.40;;
30010;SDS011;16851;53.564;8.112;2023-12-07T13:22:33;29.07;;;18.83;;
30010;SDS011;16851;53.564;8.112;2023-12-07T13:27:37;27.50;;;20.00;;
30010;SDS011;16851;53.564;8.112;2023-12-07T13:32:40;27.07;;;18.93;;
30010;SDS011;16851;53.564;8.112;2023-12-07T13:37:42;26.47;;;18.50;;
30010;SDS011;16851;53.564;8.112;2023-12-07T13:42:44;26.43;;;19.47;;
30010;SDS011;16851;53.564;8.112;2023-12-07T13:47:48;25.87;;;19.17;;
30010;SDS011;16851;53.564;8.112;2023-12-07T13:52:51;26.83;;;18.60;;
30010;SDS011;16851;53.564;8.112;2023-12-07T13:57:55;27.87;;;19.70;;
30010;SDS011;16851;53.564;8.112;2023-12-07T14:02:59;28.87;;;19.03;;
30010;SDS011;16851;53.564;8.112;2023-12-07T14:08:01;24.40;;;18.17;;
30010;SDS011;16851;53.564;8.112;2023-12-07T14:13:05;27.43;;;20.37;;
30010;SDS011;16851;53.564;8.112;2023-12-07T14:18:10;31.07;;;21.97;;
30010;SDS011;16851;53.564;8.112;2023-12-07T14:23:12;30.50;;;22.67;;
30010;SDS011;16851;53.564;8.112;2023-12-07T14:28:16;72.83;;;36.80;;
30010;SDS011;16851;53.564;8.112;2023-12-07T14:33:21;60.03;;;32.57;;
30010;SDS011;16851;53.564;8.112;2023-12-07T14:38:23;55.97;;;33.90;;
30010;SDS011;16851;53.564;8.112;2023-12-07T14:43:27;36.13;;;24.73;;
30010;SDS011;16851;53.564;8.112;2023-12-07T14:48:32;43.17;;;29.87;;
30010;SDS011;16851;53.564;8.112;2023-12-07T14:53:34;41.90;;;26.47;;
30010;SDS011;16851;53.564;8.112;2023-12-07T14:58:36;37.03;;;24.30;;
30010;SDS011;16851;53.564;8.112;2023-12-07T15:03:41;38.00;;;24.67;;
30010;SDS011;16851;53.564;8.112;2023-12-07T15:08:43;35.27;;;24.57;;
30010;SDS011;16851;53.564;8.112;2023-12-07T15:13:48;45.97;;;27.60;;
30010;SDS011;16851;53.564;8.112;2023-12-07T15:18:50;38.80;;;26.33;;
30010;SDS011;16851;53.564;8.112;2023-12-07T15:23:52;49.43;;;29.30;;
30010;SDS011;16851;53.564;8.112;2023-12-07T15:28:56;40.60;;;27.47;;
30010;SDS011;16851;53.564;8.112;2023-12-07T15:33:59;41.40;;;26.47;;
30010;SDS011;16851;53.564;8.112;2023-12-07T15:39:01;43.80;;;28.33;;
30010;SDS011;16851;53.564;8.112;2023-12-07T15:44:03;48.10;;;29.63;;
30010;SDS011;16851;53.564;8.112;2023-12-07T15:49:08;47.87;;;29.43;;
30010;SDS011;16851;53.564;8.112;2023-12-07T15:54:15;72.60;;;40.90;;
30010;SDS011;16851;53.564;8.112;2023-12-07T15:59:37;64.73;;;40.20;;
30010;SDS011;16851;53.564;8.112;2023-12-07T16:04:40;61.27;;;36.97;;
30010;SDS011;16851;53.564;8.112;2023-12-07T16:09:47;65.30;;;39.07;;
30010;SDS011;16851;53.564;8.112;2023-12-07T16:14:49;67.60;;;40.30;;
30010;SDS011;16851;53.564;8.112;2023-12-07T16:19:57;70.90;;;40.83;;
30010;SDS011;16851;53.564;8.112;2023-12-07T16:25:04;73.00;;;49.70;;
30010;SDS011;16851;53.564;8.112;2023-12-07T16:30:08;77.20;;;44.33;;
30010;SDS011;16851;53.564;8.112;2023-12-07T16:35:21;67.33;;;39.50;;
30010;SDS011;16851;53.564;8.112;2023-12-07T16:40:26;82.13;;;43.90;;
30010;SDS011;16851;53.564;8.112;2023-12-07T16:45:30;176.27;;;45.40;;
30010;SDS011;16851;53.564;8.112;2023-12-07T16:50:34;387.80;;;48.60;;
30010;SDS011;16851;53.564;8.112;2023-12-07T16:55:38;351.90;;;48.57;;
30010;SDS011;16851;53.564;8.112;2023-12-07T17:00:42;461.97;;;52.53;;
30010;SDS011;16851;53.564;8.112;2023-12-07T17:05:44;303.10;;;42.77;;
30010;SDS011;16851;53.564;8.112;2023-12-07T17:10:49;345.37;;;44.53;;
30010;SDS011;16851;53.564;8.112;2023-12-07T17:15:51;403.63;;;77.00;;
30010;SDS011;16851;53.564;8.112;2023-12-07T17:21:00;554.58;;;75.15;;
30010;SDS011;16851;53.564;8.112;2023-12-07T17:26:03;321.57;;;48.67;;
30010;SDS011;16851;53.564;8.112;2023-12-07T17:31:05;351.90;;;50.63;;
30010;SDS011;16851;53.564;8.112;2023-12-07T17:36:07;333.93;;;46.60;;
30010;SDS011;16851;53.564;8.112;2023-12-07T17:41:12;314.43;;;48.80;;
30010;SDS011;16851;53.564;8.112;2023-12-07T17:46:13;366.93;;;52.40;;
30010;SDS011;16851;53.564;8.112;2023-12-07T17:51:15;242.40;;;49.17;;
30010;SDS011;16851;53.564;8.112;2023-12-07T17:56:20;345.43;;;54.13;;
30010;SDS011;16851;53.564;8.112;2023-12-07T18:01:22;314.70;;;52.10;;
30010;SDS011;16851;53.564;8.112;2023-12-07T18:06:27;222.53;;;48.80;;
30010;SDS011;16851;53.564;8.112;2023-12-07T18:11:29;315.17;;;50.50;;
30010;SDS011;16851;53.564;8.112;2023-12-07T18:16:31;182.90;;;48.97;;
30010;SDS011;16851;53.564;8.112;2023-12-07T18:21:36;310.30;;;51.80;;
30010;SDS011;16851;53.564;8.112;2023-12-07T18:26:40;185.17;;;47.57;;
30010;SDS011;16851;53.564;8.112;2023-12-07T18:31:44;289.47;;;48.83;;
30010;SDS011;16851;53.564;8.112;2023-12-07T18:36:48;238.10;;;49.37;;
30010;SDS011;16851;53.564;8.112;2023-12-07T18:41:50;346.83;;;54.90;;
30010;SDS011;16851;53.564;8.112;2023-12-07T18:46:54;244.90;;;50.00;;
30010;SDS011;16851;53.564;8.112;2023-12-07T18:51:56;183.93;;;50.57;;
30010;SDS011;16851;53.564;8.112;2023-12-07T18:56:58;276.57;;;54.53;;
30010;SDS011;16851;53.564;8.112;2023-12-07T19:02:04;268.30;;;57.10;;
30010;SDS011;16851;53.564;8.112;2023-12-07T19:07:08;144.73;;;48.17;;
30010;SDS011;16851;53.564;8.112;2023-12-07T19:12:12;151.93;;;48.33;;
30010;SDS011;16851;53.564;8.112;2023-12-07T19:17:17;176.23;;;47.93;;
30010;SDS011;16851;53.564;8.112;2023-12-07T19:22:21;167.13;;;52.63;;
30010;SDS011;16851;53.564;8.112;2023-12-07T19:27:30;142.23;;;49.13;;
30010;SDS011;16851;53.564;8.112;2023-12-07T19:32:32;207.50;;;49.57;;
30010;SDS011;16851;53.564;8.112;2023-12-07T19:37:40;362.40;;;61.67;;
30010;SDS011;16851;53.564;8.112;2023-12-07T19:42:41;187.15;;;62.65;;
30010;SDS011;16851;53.564;8.112;2023-12-07T19:47:51;329.37;;;59.73;;
30010;SDS011;16851;53.564;8.112;2023-12-07T19:52:54;286.83;;;55.30;;
30010;SDS011;16851;53.564;8.112;2023-12-07T19:57:58;190.70;;;49.53;;
30010;SDS011;16851;53.564;8.112;2023-12-07T20:03:01;229.17;;;47.00;;
30010;SDS011;16851;53.564;8.112;2023-12-07T20:08:03;272.70;;;52.63;;
30010;SDS011;16851;53.564;8.112;2023-12-07T20:13:08;438.20;;;60.03;;
30010;SDS011;16851;53.564;8.112;2023-12-07T20:18:12;437.07;;;62.93;;
30010;SDS011;16851;53.564;8.112;2023-12-07T20:23:15;231.03;;;53.47;;
30010;SDS011;16851;53.564;8.112;2023-12-07T20:28:19;354.40;;;57.40;;
30010;SDS011;16851;53.564;8.112;2023-12-07T20:33:21;242.20;;;56.20;;
30010;SDS011;16851;53.564;8.112;2023-12-07T20:38:28;284.47;;;55.77;;
30010;SDS011;16851;53.564;8.112;2023-12-07T20:43:30;231.47;;;53.97;;
30010;SDS011;16851;53.564;8.112;2023-12-07T20:48:33;266.97;;;53.70;;
30010;SDS011;16851;53.564;8.112;2023-12-07T20:53:35;263.93;;;54.07;;
30010;SDS011;16851;53.564;8.112;2023-12-07T20:58:44;170.40;;;49.83;;
30010;SDS011;16851;53.564;8.112;2023-12-07T21:03:48;194.27;;;55.97;;
30010;SDS011;16851;53.564;8.112;2023-12-07T21:08:51;141.40;;;48.57;;
30010;SDS011;16851;53.564;8.112;2023-12-07T21:13:55;184.80;;;53.43;;
30010;SDS011;16851;53.564;8.112;2023-12-07T21:19:07;196.13;;;56.30;;
30010;SDS011;16851;53.564;8.112;2023-12-07T21:24:12;288.40;;;62.53;;
30010;SDS011;16851;53.564;8.112;2023-12-07T21:29:16;207.27;;;56.97;;
30010;SDS011;16851;53.564;8.112;2023-12-07T21:34:18;116.80;;;45.33;;
30010;SDS011;16851;53.564;8.112;2023-12-07T21:39:21;136.57;;;49.63;;
30010;SDS011;16851;53.564;8.112;2023-12-07T21:44:25;139.03;;;50.57;;
30010;SDS011;16851;53.564;8.112;2023-12-07T21:49:27;110.93;;;47.07;;
30010;SDS011;16851;53.564;8.112;2023-12-07T21:54:29;132.03;;;49.07;;
30010;SDS011;16851;53.564;8.112;2023-12-07T21:59:35;133.80;;;50.00;;
30010;SDS011;16851;53.564;8.112;2023-12-07T22:04:37;118.47;;;48.10;;
30010;SDS011;16851;53.564;8.112;2023-12-07T22:09:41;109.37;;;45.47;;
30010;SDS011;16851;53.564;8.112;2023-12-07T22:14:46;117.10;;;46.67;;
30010;SDS011;16851;53.564;8.112;2023-12-07T22:19:51;98.97;;;43.93;;
30010;SDS011;16851;53.564;8.112;2023-12-07T22:24:53;101.83;;;45.27;;
30010;SDS011;16851;53.564;8.112;2023-12-07T22:29:57;111.77;;;45.70;;
30010;SDS011;16851;53.564;8.112;2023-12-07T22:34:59;106.07;;;45.57;;
30010;SDS011;16851;53.564;8.112;2023-12-07T22:40:01;106.33;;;44.80;;
30010;SDS011;16851;53.564;8.112;2023-12-07T22:45:04;100.17;;;41.13;;
30010;SDS011;16851;53.564;8.112;2023-12-07T22:50:07;104.03;;;43.43;;
30010;SDS011;16851;53.564;8.112;2023-12-07T22:55:11;91.70;;;43.50;;
30010;SDS011;16851;53.564;8.112;2023-12-07T23:00:13;101.40;;;44.13;;
30010;SDS011;16851;53.564;8.112;2023-12-07T23:05:21;96.23;;;43.40;;
30010;SDS011;16851;53.564;8.112;2023-12-07T23:10:28;95.07;;;43.93;;
30010;SDS011;16851;53.564;8.112;2023-12-07T23:15:30;91.23;;;41.33;;
30010;SDS011;16851;53.564;8.112;2023-12-07T23:20:35;80.13;;;38.87;;
30010;SDS011;16851;53.564;8.112;2023-12-07T23:25:41;95.23;;;42.77;;
30010;SDS011;16851;53.564;8.112;2023-12-07T23:30:47;82.00;;;40.63;;
30010;SDS011;16851;53.564;8.112;2023-12-07T23:35:50;91.23;;;39.47;;
30010;SDS011;16851;53.564;8.112;2023-12-07T23:40:52;95.83;;;44.77;;
30010;SDS011;16851;53.564;8.112;2023-12-07T23:45:56;79.57;;;40.20;;
30010;SDS011;16851;53.564;8.112;2023-12-07T23:51:00;85.07;;;40.20;;
30010;SDS011;16851;53.564;8.112;2023-12-07T23:56:02;77.50;;;40.10;;
